Time;durP1;ratioP1;P1;durP2;ratioP2;P2;SDS_P1;SDS_P2;PMS_P1;PMS_P2;Temp;Humidity;BMP_temperature;BMP_pressure;BME280_temperature;BME280_humidity;BME280_pressure;Samples;Min_cycle;Max_cycle;Signal;HPM_P1;HPM_P2
2022/01/14 00:02:15;;;;;;;0.40;0.30;;;;;;;1.44;87.66;99176.80;1707298;82;21057;-53
2022/01/14 00:04:41;;;;;;;0.60;0.37;;;;;;;1.46;87.63;99185.58;1704274;81;21435;-53
2022/01/14 00:07:07;;;;;;;0.30;0.30;;;;;;;1.47;87.62;99179.83;1705110;82;21337;-53
2022/01/14 00:09:35;;;;;;;0.20;0.20;;;;;;;1.48;87.64;99173.62;1703360;82;21662;-53
2022/01/14 00:12:09;;;;;;;0.80;0.30;;;;;;;1.49;87.62;99176.25;1703920;82;21528;-52
2022/01/14 00:14:39;;;;;;;0.40;0.30;;;;;;;1.50;87.63;99184.63;1696898;81;21058;-52
2022/01/14 00:17:12;;;;;;;0.40;0.30;;;;;;;1.53;87.61;99185.03;1687433;81;22859;-52
2022/01/14 00:19:39;;;;;;;1.07;0.40;;;;;;;1.55;87.58;99174.36;1711911;81;21056;-51
2022/01/14 00:22:11;;;;;;;0.40;0.30;;;;;;;1.55;87.54;99178.33;1734643;81;21057;-51
2022/01/14 00:33:10;;;;;;;0.60;0.40;;;;;;;1.50;87.56;99181.97;1705782;82;21109;-49
2022/01/14 00:35:41;;;;;;;0.97;0.30;;;;;;;1.53;87.57;99176.19;1709839;81;21277;-50
2022/01/14 00:38:08;;;;;;;0.30;0.20;;;;;;;1.53;87.56;99173.93;1721747;81;21793;-50
2022/01/14 00:40:35;;;;;;;0.57;0.30;;;;;;;1.53;87.58;99161.60;1707286;81;21120;-50
2022/01/14 00:43:02;;;;;;;0.50;0.30;;;;;;;1.55;87.56;99173.91;1709830;81;21091;-50
2022/01/14 00:45:28;;;;;;;1.80;0.30;;;;;;;1.57;87.55;99161.94;1706054;81;21080;-49
2022/01/14 00:47:54;;;;;;;0.30;0.20;;;;;;;1.57;87.52;99169.45;1695590;82;21140;-49
2022/01/14 00:50:21;;;;;;;0.40;0.27;;;;;;;1.59;87.49;99164.11;1703983;82;21649;-50
2022/01/14 00:52:47;;;;;;;0.70;0.20;;;;;;;1.60;87.50;99161.89;1705629;82;21123;-49
2022/01/14 00:55:18;;;;;;;0.30;0.23;;;;;;;1.61;87.44;99159.20;1701041;82;21077;-48
2022/01/14 01:00:33;;;;;;;1.10;0.20;;;;;;;1.66;87.41;99155.98;1713567;81;21105;-50
2022/01/14 01:03:01;;;;;;;0.40;0.30;;;;;;;1.70;87.40;99147.03;1711207;81;22976;-51
2022/01/14 01:05:27;;;;;;;0.30;0.20;;;;;;;1.75;87.33;99146.50;1724858;81;21047;-51
2022/01/14 01:08:04;;;;;;;0.40;0.23;;;;;;;1.78;87.24;99142.47;1708321;81;21377;-52
2022/01/14 01:10:24;;;;;;;0.60;0.40;;;;;;;1.79;87.23;99145.95;1709239;81;21074;-52
2022/01/14 01:13:01;;;;;;;0.50;0.30;;;;;;;1.81;87.16;99147.68;1710469;82;22662;-52
2022/01/14 01:15:22;;;;;;;0.40;0.23;;;;;;;1.79;87.07;99136.67;1699338;81;21125;-51
2022/01/14 01:17:49;;;;;;;0.37;0.30;;;;;;;1.77;87.04;99134.53;1712779;81;21150;-52
2022/01/14 01:20:20;;;;;;;0.97;0.30;;;;;;;1.77;86.99;99143.37;1711659;81;21139;-52
2022/01/14 01:22:48;;;;;;;0.73;0.30;;;;;;;1.76;86.98;99132.33;1707711;82;21417;-52
2022/01/14 01:25:20;;;;;;;0.60;0.30;;;;;;;1.74;87.02;99120.00;1710389;81;21089;-53
2022/01/14 01:27:47;;;;;;;1.13;0.27;;;;;;;1.76;87.03;99114.20;1705556;81;22769;-50
2022/01/14 01:30:48;;;;;;;0.33;0.20;;;;;;;1.76;87.05;99099.61;1706718;81;21097;-52
2022/01/14 01:32:48;;;;;;;0.30;0.20;;;;;;;1.79;87.01;99100.84;1695931;81;21570;-51
2022/01/14 01:35:15;;;;;;;0.47;0.30;;;;;;;1.81;86.98;99091.08;1695869;82;21367;-51
2022/01/14 01:37:42;;;;;;;0.23;0.20;;;;;;;1.81;86.98;99081.34;1722852;81;21109;-51
2022/01/14 01:40:09;;;;;;;0.40;0.30;;;;;;;1.84;86.91;99079.08;1710689;82;21796;-51
2022/01/14 01:42:36;;;;;;;0.50;0.30;;;;;;;1.85;86.88;99080.83;1702483;83;21609;-52
2022/01/14 01:45:09;;;;;;;0.90;0.20;;;;;;;1.86;86.86;99065.33;1736252;81;21310;-51
2022/01/14 01:47:33;;;;;;;0.40;0.30;;;;;;;1.87;86.90;99060.44;1744475;81;20998;-53
2022/01/14 01:50:11;;;;;;;0.40;0.27;;;;;;;1.90;86.81;99043.09;1724697;81;21136;-52
2022/01/14 01:52:38;;;;;;;0.67;0.20;;;;;;;1.92;86.72;99031.12;1740056;81;21341;-51
2022/01/14 01:55:06;;;;;;;0.40;0.30;;;;;;;1.92;86.69;99017.84;1743790;80;21503;-51
2022/01/14 01:57:33;;;;;;;0.40;0.30;;;;;;;1.92;86.65;98996.61;1720378;81;21062;-53
2022/01/14 01:59:59;;;;;;;0.40;0.20;;;;;;;1.92;86.66;98989.53;1700569;82;21634;-52
2022/01/14 02:02:26;;;;;;;0.87;0.30;;;;;;;1.93;86.65;98975.80;1715457;81;21053;-53
2022/01/14 02:04:52;;;;;;;0.47;0.30;;;;;;;1.94;86.55;98978.88;1704192;81;21140;-53
2022/01/14 02:07:19;;;;;;;0.50;0.40;;;;;;;1.94;86.53;98985.06;1708311;81;21193;-52
2022/01/14 02:09:45;;;;;;;1.07;0.30;;;;;;;1.95;86.49;98976.64;1712889;81;21039;-52
2022/01/14 02:12:11;;;;;;;0.47;0.30;;;;;;;1.95;86.42;98964.25;1706767;82;21111;-53
2022/01/14 02:19:43;;;;;;;0.70;0.50;;;;;;;1.96;86.32;98981.05;1704611;81;21519;-52
2022/01/14 02:22:14;;;;;;;1.20;0.37;;;;;;;1.98;86.41;98997.33;1691483;82;21084;-52
2022/01/14 02:27:12;;;;;;;0.50;0.30;;;;;;;2.00;86.32;98985.34;1714175;82;20275;-52
2022/01/14 02:29:38;;;;;;;0.50;0.40;;;;;;;1.99;86.33;98975.19;1710003;82;21226;-52
2022/01/14 02:32:05;;;;;;;0.30;0.30;;;;;;;2.00;86.24;98975.60;1710791;81;20970;-52
2022/01/14 02:34:32;;;;;;;0.60;0.30;;;;;;;2.00;86.23;98976.93;1710146;82;21008;-52
2022/01/14 02:37:00;;;;;;;0.33;0.30;;;;;;;2.02;86.22;98968.93;1698388;82;21373;-53
2022/01/14 02:39:26;;;;;;;1.27;0.30;;;;;;;2.01;86.14;98968.06;1743679;81;21599;-53
2022/01/14 02:41:52;;;;;;;0.60;0.30;;;;;;;2.01;86.15;98960.09;1745238;81;22493;-53
2022/01/14 02:44:24;;;;;;;0.60;0.40;;;;;;;2.02;86.13;98958.31;1705922;81;21901;-53
2022/01/14 02:46:56;;;;;;;0.60;0.40;;;;;;;2.02;86.16;98952.55;1710509;81;21514;-52
2022/01/14 02:49:29;;;;;;;0.70;0.40;;;;;;;2.03;86.14;98948.98;1719324;81;20966;-53
2022/01/14 02:51:56;;;;;;;0.40;0.30;;;;;;;2.04;86.20;98934.77;1714993;81;20980;-53
2022/01/14 02:54:39;;;;;;;0.50;0.37;;;;;;;2.06;86.15;98932.09;1715751;81;21120;-54
2022/01/14 02:58:12;;;;;;;0.60;0.43;;;;;;;2.09;86.16;98922.27;1777091;77;26425;-53
2022/01/14 03:00:38;;;;;;;0.53;0.50;;;;;;;2.03;86.14;98909.17;1719062;81;21051;-54
2022/01/14 03:03:05;;;;;;;1.33;0.43;;;;;;;2.03;86.19;98910.95;1721841;81;21374;-54
2022/01/14 03:05:32;;;;;;;1.27;0.60;;;;;;;2.02;86.19;98896.81;1718550;81;21441;-54
2022/01/14 03:07:59;;;;;;;0.70;0.40;;;;;;;2.02;86.22;98882.66;1723611;81;21561;-53
2022/01/14 03:10:25;;;;;;;1.63;0.60;;;;;;;2.01;86.28;98877.81;1725354;81;21616;-53
2022/01/14 03:12:51;;;;;;;1.27;0.40;;;;;;;2.00;86.36;98873.86;1719633;81;21849;-53
2022/01/14 03:15:19;;;;;;;1.17;0.47;;;;;;;2.02;86.37;98883.99;1718962;81;21966;-54
2022/01/14 03:17:45;;;;;;;0.70;0.47;;;;;;;1.99;86.39;98886.72;1717311;81;21362;-53
2022/01/14 03:20:33;;;;;;;0.60;0.43;;;;;;;2.00;86.51;98891.13;1721066;81;21303;-53
2022/01/14 03:22:52;;;;;;;0.90;0.40;;;;;;;2.01;86.62;98886.23;1719618;81;21486;-53
2022/01/14 03:27:56;;;;;;;0.60;0.37;;;;;;;2.04;86.66;98877.70;1728988;81;21182;-54
2022/01/14 03:30:22;;;;;;;0.40;0.30;;;;;;;2.05;86.67;98867.95;1721663;81;21670;-54
2022/01/14 03:32:49;;;;;;;0.53;0.40;;;;;;;2.05;86.69;98866.17;1720670;81;21084;-54
2022/01/14 03:35:15;;;;;;;0.50;0.40;;;;;;;2.05;86.74;98857.34;1715878;81;21319;-54
2022/01/14 03:37:41;;;;;;;0.40;0.40;;;;;;;2.07;86.80;98862.16;1692729;83;21470;-54
2022/01/14 03:40:09;;;;;;;0.57;0.40;;;;;;;2.08;86.78;98842.21;1719757;81;21645;-54
2022/01/14 03:42:37;;;;;;;0.50;0.33;;;;;;;2.09;86.77;98842.63;1722222;81;21126;-55
2022/01/14 03:45:04;;;;;;;1.03;0.30;;;;;;;2.08;86.81;98826.28;1720488;81;21083;-54
2022/01/14 03:47:30;;;;;;;0.67;0.50;;;;;;;2.08;86.81;98824.95;1723143;81;21028;-56
2022/01/14 03:49:57;;;;;;;0.60;0.40;;;;;;;2.09;86.89;98822.72;1716009;81;21495;-53
2022/01/14 03:52:23;;;;;;;0.90;0.50;;;;;;;2.10;86.88;98816.95;1717307;81;21441;-56
2022/01/14 03:54:50;;;;;;;0.80;0.50;;;;;;;2.10;86.95;98795.72;1718684;81;21584;-56
2022/01/14 03:57:16;;;;;;;0.77;0.40;;;;;;;2.09;86.96;98782.90;1726527;80;21016;-55
2022/01/14 03:59:44;;;;;;;0.70;0.43;;;;;;;2.09;86.95;98777.59;1682475;81;21104;-55
2022/01/14 04:02:10;;;;;;;0.70;0.40;;;;;;;2.09;87.00;98780.25;1716067;81;21091;-54
2022/01/14 04:04:37;;;;;;;0.53;0.40;;;;;;;2.07;87.07;98771.45;1716254;81;21755;-54
2022/01/14 04:07:03;;;;;;;0.70;0.50;;;;;;;2.07;87.08;98769.25;1715386;81;21274;-55
2022/01/14 04:09:36;;;;;;;0.50;0.40;;;;;;;2.06;87.13;98773.69;1717636;81;20920;-54
2022/01/14 04:12:01;;;;;;;1.33;0.40;;;;;;;2.07;87.16;98762.61;1723583;81;21461;-54
2022/01/14 04:16:53;;;;;;;1.40;0.50;;;;;;;2.05;87.25;98749.84;1714077;81;21224;-54
2022/01/14 04:19:20;;;;;;;0.70;0.50;;;;;;;2.06;87.30;98740.97;1720224;81;20971;-55
2022/01/14 04:21:46;;;;;;;0.80;0.50;;;;;;;2.06;87.28;98745.81;1714229;81;21051;-54
2022/01/14 04:24:12;;;;;;;0.80;0.50;;;;;;;2.06;87.31;98740.97;1718091;81;21043;-54
2022/01/14 04:26:39;;;;;;;0.97;0.50;;;;;;;2.07;87.34;98745.36;1718686;81;21158;-55
2022/01/14 04:29:05;;;;;;;2.50;0.50;;;;;;;2.07;87.37;98749.34;1717479;81;21907;-55
2022/01/14 04:31:31;;;;;;;0.40;0.40;;;;;;;2.09;87.43;98738.23;1715590;81;20980;-56
2022/01/14 04:33:58;;;;;;;0.70;0.50;;;;;;;2.10;87.35;98739.52;1718322;81;21512;-55
2022/01/14 04:36:24;;;;;;;0.60;0.50;;;;;;;2.11;87.38;98744.37;1715851;81;21546;-56
2022/01/14 04:38:50;;;;;;;0.70;0.50;;;;;;;2.11;87.39;98726.66;1713407;81;21115;-55
2022/01/14 04:41:16;;;;;;;0.60;0.50;;;;;;;2.11;87.36;98733.30;1715645;81;21120;-55
2022/01/14 04:43:43;;;;;;;1.10;0.50;;;;;;;2.13;87.40;98724.80;1715747;81;21134;-57
2022/01/14 04:48:36;;;;;;;0.70;0.40;;;;;;;2.10;87.39;98722.27;1715862;81;21705;-56
2022/01/14 04:51:07;;;;;;;0.70;0.50;;;;;;;2.11;87.45;98717.82;1715996;81;21364;-55
2022/01/14 04:53:34;;;;;;;0.57;0.40;;;;;;;2.12;87.54;98719.56;1716457;81;22354;-55
2022/01/14 04:56:01;;;;;;;0.60;0.40;;;;;;;2.14;87.55;98717.25;1719742;81;20942;-55
2022/01/14 04:58:27;;;;;;;0.50;0.30;;;;;;;2.14;87.56;98717.25;1722756;81;21274;-55
2022/01/14 05:00:54;;;;;;;0.37;0.33;;;;;;;2.16;87.62;98717.20;1721236;82;20923;-56
2022/01/14 05:03:20;;;;;;;0.80;0.40;;;;;;;2.19;87.65;98699.41;1718777;81;20968;-56
2022/01/14 05:05:50;;;;;;;0.50;0.40;;;;;;;2.20;87.62;98695.84;1720068;81;21877;-56
2022/01/14 05:08:22;;;;;;;0.87;0.43;;;;;;;2.21;87.60;98700.20;1684392;83;20972;-55
2022/01/14 05:13:23;;;;;;;0.40;0.30;;;;;;;2.22;87.64;98683.82;1725071;82;20932;-55
2022/01/14 05:15:51;;;;;;;0.53;0.40;;;;;;;2.21;87.66;98680.30;1718490;81;20976;-55
2022/01/14 05:18:20;;;;;;;1.83;0.40;;;;;;;2.22;87.70;98676.73;1729653;81;20901;-55
2022/01/14 05:20:46;;;;;;;0.70;0.40;;;;;;;2.24;87.72;98674.90;1724564;82;20972;-56
2022/01/14 05:23:12;;;;;;;0.57;0.47;;;;;;;2.24;87.71;98676.23;1730728;82;20931;-56
2022/01/14 05:25:39;;;;;;;0.40;0.30;;;;;;;2.24;87.66;98663.41;1723817;81;20971;-55
2022/01/14 05:28:05;;;;;;;0.43;0.40;;;;;;;2.22;87.71;98670.55;1721708;81;21443;-56
2022/01/14 05:30:32;;;;;;;3.17;0.50;;;;;;;2.22;87.82;98668.77;1727723;82;22103;-55
2022/01/14 05:32:59;;;;;;;1.90;0.60;;;;;;;2.23;87.81;98660.34;1725282;80;20981;-56
2022/01/14 05:35:26;;;;;;;0.97;0.63;;;;;;;2.23;87.80;98663.00;1723260;81;20905;-56
2022/01/14 05:37:53;;;;;;;1.07;0.50;;;;;;;2.24;87.85;98642.17;1725172;82;20901;-55
2022/01/14 05:40:20;;;;;;;1.37;0.57;;;;;;;2.24;87.87;98639.05;1721484;82;20980;-55
2022/01/14 05:42:47;;;;;;;0.80;0.50;;;;;;;2.24;87.88;98635.53;1718173;81;22165;-57
2022/01/14 05:45:14;;;;;;;0.80;0.57;;;;;;;2.24;87.90;98629.77;1689185;82;21518;-56
2022/01/14 05:47:41;;;;;;;0.80;0.60;;;;;;;2.24;87.90;98620.47;1721357;82;21044;-56
2022/01/14 05:50:10;;;;;;;1.37;0.57;;;;;;;2.23;87.91;98611.22;1722037;82;21073;-56
2022/01/14 05:52:37;;;;;;;0.93;0.70;;;;;;;2.21;87.95;98608.61;1720286;81;21031;-56
2022/01/14 05:55:05;;;;;;;0.87;0.70;;;;;;;2.23;87.99;98607.23;1688870;83;21262;-56
2022/01/14 05:57:34;;;;;;;3.53;0.60;;;;;;;2.23;88.03;98600.59;1731654;80;21068;-56
2022/01/14 06:00:03;;;;;;;1.20;0.70;;;;;;;2.23;88.03;98596.62;1715352;82;22155;-57
2022/01/14 06:02:29;;;;;;;2.13;0.80;;;;;;;2.24;88.11;98585.95;1755913;79;21697;-57
2022/01/14 06:04:55;;;;;;;2.17;0.77;;;;;;;2.25;88.14;98588.15;1756652;80;21044;-56
2022/01/14 06:07:21;;;;;;;1.03;0.60;;;;;;;2.26;88.16;98584.13;1753972;80;21191;-55
2022/01/14 06:09:48;;;;;;;1.00;0.70;;;;;;;2.25;88.12;98579.73;1716362;82;21061;-56
2022/01/14 06:12:15;;;;;;;1.60;0.90;;;;;;;2.25;88.16;98584.17;1748357;80;21049;-58
2022/01/14 06:14:41;;;;;;;1.87;0.97;;;;;;;2.25;88.19;98585.50;1718876;82;21421;-57
2022/01/14 06:17:08;;;;;;;1.30;0.70;;;;;;;2.27;88.18;98585.86;1751977;80;21041;-57
2022/01/14 06:19:34;;;;;;;3.23;1.00;;;;;;;2.30;88.21;98577.39;1718279;82;21104;-57
2022/01/14 06:22:00;;;;;;;3.00;0.80;;;;;;;2.31;88.20;98556.07;1747740;80;21085;-57
2022/01/14 06:24:27;;;;;;;2.30;0.80;;;;;;;2.33;88.19;98549.39;1686267;83;21114;-57
2022/01/14 06:26:53;;;;;;;3.80;0.97;;;;;;;2.36;88.16;98550.16;1749318;80;21485;-57
2022/01/14 06:29:19;;;;;;;2.40;0.70;;;;;;;2.38;88.12;98552.77;1749449;80;21028;-57
2022/01/14 06:31:45;;;;;;;2.27;1.00;;;;;;;2.41;88.05;98561.94;1751489;80;21188;-57
2022/01/14 06:34:14;;;;;;;4.80;0.90;;;;;;;2.42;88.00;98557.04;1753831;80;21116;-57
2022/01/14 06:36:41;;;;;;;2.50;0.90;;;;;;;2.46;87.90;98548.93;1747190;80;22343;-57
2022/01/14 06:39:08;;;;;;;5.00;1.10;;;;;;;2.48;87.85;98545.73;1750687;80;21270;-57
2022/01/14 06:41:35;;;;;;;5.57;1.33;;;;;;;2.52;87.78;98544.72;1748591;80;21033;-58
2022/01/14 06:44:06;;;;;;;3.10;1.00;;;;;;;2.55;87.63;98549.07;1753301;80;21100;-57
2022/01/14 06:46:32;;;;;;;2.23;0.83;;;;;;;2.59;87.50;98541.38;1689595;83;21057;-57
2022/01/14 06:48:58;;;;;;;3.67;0.83;;;;;;;2.62;87.41;98522.23;1688332;83;21105;-57
2022/01/14 06:51:25;;;;;;;4.47;1.30;;;;;;;2.66;87.30;98500.39;1690091;83;21098;-58
2022/01/14 06:53:51;;;;;;;2.70;0.93;;;;;;;2.69;87.14;98493.64;1692338;83;21146;-59
2022/01/14 06:56:17;;;;;;;4.60;1.20;;;;;;;2.71;86.94;98489.61;1695574;83;22615;-58
2022/01/14 06:58:44;;;;;;;2.77;1.10;;;;;;;2.71;86.89;98475.00;1684051;83;21603;-60
2022/01/14 07:01:10;;;;;;;2.27;0.80;;;;;;;2.73;86.75;98482.42;1685943;83;21538;-60
2022/01/14 07:03:36;;;;;;;3.93;1.30;;;;;;;2.74;86.59;98470.88;1684728;83;21037;-60
2022/01/14 07:06:03;;;;;;;3.97;0.93;;;;;;;2.76;86.49;98466.38;1679512;83;21086;-59
2022/01/14 07:08:30;;;;;;;4.30;1.00;;;;;;;2.78;86.34;98460.55;1687478;83;21120;-60
2022/01/14 07:10:56;;;;;;;3.50;1.10;;;;;;;2.79;86.25;98447.21;1688339;83;21156;-58
2022/01/14 07:13:23;;;;;;;2.50;1.33;;;;;;;2.81;86.07;98428.06;1686016;83;21141;-60
2022/01/14 07:15:49;;;;;;;4.43;1.20;;;;;;;2.82;85.92;98427.14;1696454;83;21113;-58
2022/01/14 07:18:16;;;;;;;2.63;1.20;;;;;;;2.83;85.85;98430.67;1683399;82;21710;-58
2022/01/14 07:20:42;;;;;;;3.70;1.20;;;;;;;2.84;85.75;98453.20;1679181;83;21835;-58
2022/01/14 07:23:08;;;;;;;4.60;1.43;;;;;;;2.84;85.60;98452.34;1670091;84;21089;-58
2022/01/14 07:25:37;;;;;;;3.10;1.10;;;;;;;2.84;85.36;98439.05;1703690;82;21033;-58
2022/01/14 07:28:04;;;;;;;3.97;1.17;;;;;;;2.81;85.32;98431.19;1701093;82;21086;-57
2022/01/14 07:30:30;;;;;;;4.07;1.10;;;;;;;2.82;85.18;98436.45;1680535;83;21527;-58
2022/01/14 07:32:58;;;;;;;3.33;1.30;;;;;;;2.82;85.14;98446.20;1749797;80;21163;-57
2022/01/14 07:35:25;;;;;;;7.03;1.50;;;;;;;2.82;84.92;98431.13;1741217;80;21308;-57
2022/01/14 07:37:51;;;;;;;4.33;1.03;;;;;;;2.83;84.65;98426.22;1676864;83;21166;-57
2022/01/14 07:40:18;;;;;;;3.93;1.17;;;;;;;2.87;84.62;98423.87;1662100;84;21134;-58
2022/01/14 07:42:44;;;;;;;2.20;1.00;;;;;;;2.90;84.33;98420.20;1693539;83;21530;-56
2022/01/14 07:45:11;;;;;;;6.97;1.40;;;;;;;2.92;84.26;98441.83;1689914;83;22295;-54
2022/01/14 07:47:38;;;;;;;4.00;1.10;;;;;;;2.94;84.07;98416.05;1689073;82;21124;-56
2022/01/14 07:50:05;;;;;;;2.43;1.07;;;;;;;2.96;83.88;98430.16;1687050;83;21319;-56
2022/01/14 07:52:31;;;;;;;1.60;1.03;;;;;;;2.98;83.71;98423.43;1685066;83;21067;-55
2022/01/14 07:54:58;;;;;;;2.00;1.00;;;;;;;2.99;83.56;98428.69;1743320;80;21104;-56
2022/01/14 07:57:24;;;;;;;7.13;1.30;;;;;;;3.01;83.38;98409.57;1704549;82;21154;-55
2022/01/14 07:59:50;;;;;;;2.77;1.00;;;;;;;3.01;83.10;98414.89;1710978;82;21171;-56
2022/01/14 08:02:18;;;;;;;4.33;1.10;;;;;;;3.03;83.02;98392.23;1691909;83;21093;-56
2022/01/14 08:04:47;;;;;;;3.77;1.10;;;;;;;3.02;82.85;98392.70;1689022;83;21100;-55
2022/01/14 08:07:16;;;;;;;1.60;1.00;;;;;;;3.04;82.77;98405.94;1690576;83;21647;-55
2022/01/14 08:09:42;;;;;;;3.80;1.00;;;;;;;3.06;82.54;98375.31;1690995;83;21091;-55
2022/01/14 08:12:10;;;;;;;4.20;1.13;;;;;;;3.09;82.43;98377.83;1691999;83;21106;-55
2022/01/14 08:14:37;;;;;;;2.10;0.80;;;;;;;3.10;82.28;98376.44;1690366;83;20998;-57
2022/01/14 08:17:04;;;;;;;1.13;0.67;;;;;;;3.13;82.20;98377.66;1700879;83;21003;-55
2022/01/14 08:19:33;;;;;;;4.17;0.80;;;;;;;3.14;81.92;98352.80;1690257;83;20922;-55
2022/01/14 08:22:04;;;;;;;2.07;0.60;;;;;;;3.16;81.78;98345.61;1694171;83;21125;-55
2022/01/14 08:24:30;;;;;;;2.27;0.80;;;;;;;3.18;81.67;98338.91;1690765;83;21017;-56
2022/01/14 08:26:57;;;;;;;3.60;0.77;;;;;;;3.19;81.53;98336.65;1693661;83;20996;-55
2022/01/14 08:29:23;;;;;;;1.20;0.60;;;;;;;3.22;81.33;98320.58;1683532;83;21008;-56
2022/01/14 08:31:49;;;;;;;1.43;0.70;;;;;;;3.25;81.13;98329.28;1687558;83;20942;-56
2022/01/14 08:34:16;;;;;;;1.67;0.90;;;;;;;3.28;80.95;98309.22;1687493;83;21075;-56
2022/01/14 08:36:42;;;;;;;1.83;0.80;;;;;;;3.30;80.75;98311.36;1685663;83;21140;-56
2022/01/14 08:39:08;;;;;;;2.17;0.70;;;;;;;3.31;80.55;98297.59;1687587;83;21109;-55
2022/01/14 08:41:35;;;;;;;0.97;0.60;;;;;;;3.31;80.44;98302.45;1680137;83;21160;-55
2022/01/14 08:44:01;;;;;;;1.20;0.67;;;;;;;3.32;80.28;98292.65;1687910;83;21002;-57
2022/01/14 08:46:27;;;;;;;1.33;0.60;;;;;;;3.33;80.06;98291.72;1686080;83;21102;-56
2022/01/14 08:48:54;;;;;;;2.07;0.60;;;;;;;3.36;80.04;98294.27;1682150;83;21109;-56
2022/01/14 08:51:21;;;;;;;1.27;0.70;;;;;;;3.38;79.87;98293.74;1687995;83;21089;-57
2022/01/14 08:53:47;;;;;;;1.20;0.70;;;;;;;3.40;79.74;98287.41;1688116;83;21115;-57
2022/01/14 08:56:13;;;;;;;1.50;0.70;;;;;;;3.41;79.59;98288.27;1688011;83;21069;-55
2022/01/14 08:58:40;;;;;;;2.93;0.70;;;;;;;3.41;79.55;98281.16;1683691;83;21177;-56
2022/01/14 09:03:31;;;;;;;1.00;0.70;;;;;;;3.47;79.41;98282.71;1864731;75;22528;-55
2022/01/14 09:05:57;;;;;;;1.80;0.80;;;;;;;3.44;79.33;98281.50;1839675;77;20926;-55
2022/01/14 09:08:23;;;;;;;0.83;0.63;;;;;;;3.45;79.22;98263.28;1834344;77;21128;-55
2022/01/14 09:10:50;;;;;;;2.80;0.87;;;;;;;3.44;79.04;98241.60;1835982;77;21075;-55
2022/01/14 09:13:17;;;;;;;1.73;0.77;;;;;;;3.39;79.12;98250.26;1830888;77;21071;-55
2022/01/14 09:15:46;;;;;;;1.87;0.80;;;;;;;3.39;79.21;98258.23;1840915;77;20941;-55
2022/01/14 09:18:12;;;;;;;1.97;0.83;;;;;;;3.39;79.22;98258.23;1839309;76;21547;-55
2022/01/14 09:20:38;;;;;;;1.30;0.70;;;;;;;3.38;79.21;98247.20;1834136;77;22106;-56
2022/01/14 09:23:11;;;;;;;2.37;0.83;;;;;;;3.36;79.18;98235.29;1842585;75;21067;-56
2022/01/14 09:25:33;;;;;;;1.47;0.80;;;;;;;3.38;79.14;98231.23;1828292;76;21008;-56
2022/01/14 09:27:59;;;;;;;1.37;0.80;;;;;;;3.38;79.17;98232.56;1827337;76;21013;-56
2022/01/14 09:30:26;;;;;;;1.13;0.80;;;;;;;3.38;79.21;98228.11;1850150;75;21056;-56
2022/01/14 09:32:52;;;;;;;1.00;0.60;;;;;;;3.40;79.15;98212.09;1845912;75;21772;-56
2022/01/14 09:35:18;;;;;;;1.40;0.70;;;;;;;3.41;79.11;98237.73;1840270;77;22263;-56
2022/01/14 09:37:45;;;;;;;1.53;0.80;;;;;;;3.41;79.11;98223.11;1833156;77;22187;-56
2022/01/14 09:40:14;;;;;;;0.97;0.70;;;;;;;3.42;79.06;98221.71;1835280;77;21060;-55
2022/01/14 09:42:41;;;;;;;5.20;0.90;;;;;;;3.44;79.06;98209.69;1843336;77;21436;-56
2022/01/14 09:45:09;;;;;;;1.10;0.70;;;;;;;3.47;78.97;98200.71;1835722;77;21451;-56
2022/01/14 09:47:37;;;;;;;2.37;0.80;;;;;;;3.48;78.94;98200.65;1830859;77;21038;-56
2022/01/14 09:50:05;;;;;;;1.47;0.70;;;;;;;3.50;78.93;98181.47;1846899;77;21033;-57
2022/01/14 09:52:31;;;;;;;1.23;0.70;;;;;;;3.50;78.86;98185.46;1834008;76;21052;-55
2022/01/14 09:54:57;;;;;;;1.90;0.80;;;;;;;3.52;78.83;98160.12;1795919;77;21091;-56
2022/01/14 09:57:24;;;;;;;0.80;0.70;;;;;;;3.53;78.76;98165.38;1796627;77;21777;-57
2022/01/14 09:59:50;;;;;;;1.07;0.80;;;;;;;3.54;78.74;98180.41;1785695;79;21476;-57
2022/01/14 10:02:37;;;;;;;1.33;0.70;;;;;;;3.55;78.59;98166.19;1796459;78;21080;-57
2022/01/14 10:05:06;;;;;;;1.57;0.80;;;;;;;3.53;78.64;98154.73;1799369;78;21501;-56
2022/01/14 10:07:33;;;;;;;1.10;0.60;;;;;;;3.53;78.63;98152.08;1797131;78;21080;-56
2022/01/14 10:10:02;;;;;;;1.53;0.60;;;;;;;3.54;78.65;98138.31;1796862;78;21061;-57
2022/01/14 10:12:33;;;;;;;1.00;0.60;;;;;;;3.57;78.66;98135.52;1802256;78;21065;-57
2022/01/14 10:15:08;;;;;;;1.17;0.70;;;;;;;3.59;78.64;98124.32;1810421;78;20990;-57
2022/01/14 10:17:42;;;;;;;0.85;0.57;;;;;;;3.63;78.57;98123.27;1807127;78;21060;-56
2022/01/14 10:20:12;;;;;;;0.97;0.50;;;;;;;3.69;78.44;98100.34;1809029;78;21024;-57
2022/01/14 10:22:47;;;;;;;0.90;0.57;;;;;;;3.71;78.35;98104.67;1800482;78;21088;-56
2022/01/14 10:25:19;;;;;;;2.13;0.60;;;;;;;3.74;78.27;98074.41;1805352;78;21001;-56
2022/01/14 10:27:53;;;;;;;2.23;0.60;;;;;;;3.76;78.29;98081.36;1805592;78;21135;-57
2022/01/14 10:30:34;;;;;;;1.02;0.68;;;;;;;3.79;78.12;98085.69;1801397;78;21096;-57
2022/01/14 10:33:08;;;;;;;1.50;0.57;;;;;;;3.82;78.10;98079.36;1804188;78;20933;-57
2022/01/14 10:35:42;;;;;;;1.10;0.70;;;;;;;3.85;78.08;98064.55;1800152;78;22346;-57
2022/01/14 10:38:10;;;;;;;0.90;0.70;;;;;;;3.89;78.01;98046.19;1799952;78;20980;-57
2022/01/14 10:40:44;;;;;;;2.07;0.80;;;;;;;3.91;77.94;98023.89;1812141;78;20957;-58
2022/01/14 10:43:12;;;;;;;3.10;0.80;;;;;;;3.92;77.83;98034.91;1787663;78;21251;-58
2022/01/14 10:45:38;;;;;;;2.07;0.97;;;;;;;3.91;77.80;98027.88;1805951;78;21376;-57
2022/01/14 10:48:09;;;;;;;1.70;0.80;;;;;;;3.89;77.81;98012.91;1802271;78;21438;-58
2022/01/14 10:50:46;;;;;;;1.27;0.90;;;;;;;3.87;77.89;98010.78;1802677;78;20905;-58
2022/01/14 10:53:18;;;;;;;1.30;0.83;;;;;;;3.85;77.99;98015.31;1806950;78;20906;-56
2022/01/14 10:55:47;;;;;;;2.00;0.70;;;;;;;3.84;78.10;97997.16;1792858;78;21416;-57
2022/01/14 10:58:24;;;;;;;1.33;0.70;;;;;;;3.83;78.21;97987.94;1808881;78;20937;-59
2022/01/14 11:00:59;;;;;;;1.10;0.80;;;;;;;3.84;78.31;97971.00;1822974;76;21145;-57
2022/01/14 11:03:38;;;;;;;1.53;0.90;;;;;;;3.84;78.42;97969.67;1793599;78;21672;-58
2022/01/14 11:06:24;;;;;;;1.93;1.00;;;;;;;3.83;78.53;97954.17;1789563;78;20886;-58
2022/01/14 11:09:13;;;;;;;1.20;0.90;;;;;;;3.83;78.60;97963.48;1732062;81;20945;-57
2022/01/14 11:11:44;;;;;;;1.70;0.90;;;;;;;3.78;78.71;97933.59;1745957;81;21470;-58
2022/01/14 11:14:10;;;;;;;2.10;0.80;;;;;;;3.72;78.83;97920.13;1745048;81;21766;-58
2022/01/14 11:16:38;;;;;;;1.20;0.90;;;;;;;3.67;79.04;97927.93;1744437;81;20953;-58
2022/01/14 11:19:08;;;;;;;1.20;0.80;;;;;;;3.62;79.23;97909.55;1748448;81;20964;-57
2022/01/14 11:24:32;;;;;;;1.57;0.80;;;;;;;3.54;79.70;97921.03;1746154;81;21004;-57
2022/01/14 11:27:02;;;;;;;4.50;0.70;;;;;;;3.54;79.88;97905.55;1746318;81;21098;-57
2022/01/14 11:29:39;;;;;;;1.00;0.70;;;;;;;3.53;80.04;97893.17;1746585;81;20870;-57
2022/01/14 11:32:08;;;;;;;2.10;0.70;;;;;;;3.53;80.13;97891.84;1747989;78;21259;-58
2022/01/14 11:34:46;;;;;;;1.60;0.90;;;;;;;3.52;80.26;97877.68;1754521;81;21321;-58
2022/01/14 11:37:16;;;;;;;1.20;0.70;;;;;;;3.48;80.30;97873.47;1753887;81;21051;-58
2022/01/14 11:40:07;;;;;;;1.00;0.70;;;;;;;3.45;80.45;97878.06;1743962;81;21070;-58
2022/01/14 11:42:50;;;;;;;0.67;0.50;;;;;;;3.42;80.61;97859.12;1746817;81;20992;-57
2022/01/14 11:45:20;;;;;;;0.87;0.60;;;;;;;3.38;80.78;97855.77;1742935;81;21063;-58
2022/01/14 11:47:49;;;;;;;1.00;0.60;;;;;;;3.36;80.91;97844.34;1743146;80;21494;-57
2022/01/14 11:50:27;;;;;;;0.90;0.53;;;;;;;3.35;80.99;97845.27;1742056;81;21104;-58
2022/01/14 11:52:54;;;;;;;1.33;0.70;;;;;;;3.36;81.00;97839.48;1743109;80;21166;-57
2022/01/14 11:55:35;;;;;;;0.80;0.50;;;;;;;3.37;81.06;97847.39;1749120;81;21104;-58
2022/01/14 11:58:07;;;;;;;0.73;0.60;;;;;;;3.40;81.05;97833.09;1743953;81;21071;-57
2022/01/14 12:00:39;;;;;;;0.60;0.40;;;;;;;3.42;81.04;97836.52;1743486;81;21776;-58
2022/01/14 12:03:14;;;;;;;0.80;0.50;;;;;;;3.42;80.99;97830.72;1744350;81;20922;-58
2022/01/14 12:06:05;;;;;;;0.80;0.60;;;;;;;3.44;80.96;97813.37;1740909;81;21072;-58
2022/01/14 12:08:31;;;;;;;0.63;0.40;;;;;;;3.45;80.92;97831.05;1743035;81;21079;-57
2022/01/14 12:11:09;;;;;;;0.60;0.40;;;;;;;3.47;80.88;97813.22;1744554;81;21382;-56
2022/01/14 12:13:51;;;;;;;0.90;0.50;;;;;;;3.48;80.86;97797.66;1741152;81;21076;-58
2022/01/14 12:19:04;;;;;;;0.57;0.40;;;;;;;3.48;80.78;97792.80;1750435;80;21136;-58
2022/01/14 12:21:51;;;;;;;0.78;0.50;;;;;;;3.45;80.85;97770.34;1746081;81;21666;-58
2022/01/14 12:24:27;;;;;;;2.17;0.47;;;;;;;3.41;80.90;97775.81;1745957;81;21067;-58
2022/01/14 12:27:10;;;;;;;0.77;0.57;;;;;;;3.39;81.02;97764.41;1746328;81;21483;-57